createdAt,value
2023-08-03T00:01:20.837Z,13.38
2023-08-03T00:03:49.844Z,13.49
2023-08-03T00:06:18.612Z,13.43
2023-08-03T00:08:47.405Z,13.29
2023-08-03T00:11:16.119Z,13.26
2023-08-03T00:13:46.077Z,13.27
2023-08-03T00:16:14.881Z,13.23
2023-08-03T00:18:45.011Z,13.17
2023-08-03T00:21:13.613Z,13.03
2023-08-03T00:23:42.229Z,12.93
2023-08-03T00:26:10.743Z,12.88
2023-08-03T00:28:39.158Z,12.87
2023-08-03T00:31:07.779Z,12.78
2023-08-03T00:33:36.364Z,12.79
2023-08-03T00:36:07.140Z,12.78
2023-08-03T00:38:35.681Z,12.76
2023-08-03T00:41:04.370Z,12.66
2023-08-03T00:43:32.962Z,12.72
2023-08-03T00:46:01.544Z,12.72
2023-08-03T00:48:30.135Z,13.18
2023-08-03T00:50:58.680Z,13.16
2023-08-03T00:53:28.712Z,13.22
2023-08-03T00:55:57.205Z,13.28
2023-08-03T00:58:25.983Z,13.19
2023-08-03T01:00:54.496Z,13.14
2023-08-03T01:03:23.428Z,13.05
2023-08-03T01:05:52.126Z,13.05
2023-08-03T01:08:21.436Z,13.08
2023-08-03T01:10:51.480Z,12.89
2023-08-03T01:13:20.481Z,13.24
2023-08-03T01:15:49.130Z,13.48
2023-08-03T01:18:17.996Z,13.68
2023-08-03T01:20:46.741Z,13.59
2023-08-03T01:23:17.108Z,13.59
2023-08-03T01:25:46.002Z,13.68
2023-08-03T01:28:14.672Z,13.68
2023-08-03T01:30:43.218Z,13.54
2023-08-03T01:33:12.127Z,13.58
2023-08-03T01:35:40.747Z,13.54
2023-08-03T01:38:09.411Z,13.69
2023-08-03T01:40:39.363Z,13.73
2023-08-03T01:43:07.936Z,13.73
2023-08-03T01:45:36.593Z,13.63
2023-08-03T01:48:05.521Z,13.62
2023-08-03T01:50:34.076Z,13.71
2023-08-03T01:53:02.789Z,13.71
2023-08-03T01:55:31.315Z,13.72
2023-08-03T01:58:01.389Z,13.75
2023-08-03T02:00:29.961Z,13.64
2023-08-03T02:02:58.520Z,13.75
2023-08-03T02:05:34.616Z,13.78
2023-08-03T02:08:03.306Z,13.75
2023-08-03T02:10:31.980Z,13.71
2023-08-03T02:13:02.545Z,13.87
2023-08-03T02:15:31.286Z,13.86
2023-08-03T02:18:01.182Z,13.89
2023-08-03T02:20:29.901Z,14.07
2023-08-03T02:22:58.486Z,14.03
2023-08-03T02:25:27.069Z,14.21
2023-08-03T02:27:56.744Z,14.18
2023-08-03T02:30:26.857Z,14.19
2023-08-03T02:32:55.673Z,14.16
2023-08-03T02:35:26.661Z,14.16
2023-08-03T02:37:56.521Z,14.14
2023-08-03T02:40:25.587Z,14.23
2023-08-03T02:42:54.105Z,14.36
2023-08-03T02:45:22.650Z,14.28
2023-08-03T02:47:54.591Z,14.38
2023-08-03T02:50:24.686Z,14.37
2023-08-03T02:52:58.139Z,14.29
2023-08-03T02:55:27.331Z,14.53
2023-08-03T02:57:59.156Z,14.38
2023-08-03T03:00:29.429Z,14.49
2023-08-03T03:03:00.003Z,14.46
2023-08-03T03:05:37.888Z,14.43
2023-08-03T03:08:06.906Z,14.57
2023-08-03T03:10:36.605Z,14.49
2023-08-03T03:13:05.619Z,14.57
2023-08-03T03:15:34.736Z,14.49
2023-08-03T03:18:05.993Z,14.49
2023-08-03T03:20:34.962Z,14.54
2023-08-03T03:23:03.782Z,14.58
2023-08-03T03:25:32.684Z,14.56
2023-08-03T03:28:05.642Z,14.48
2023-08-03T03:30:38.306Z,14.49
2023-08-03T03:33:08.483Z,14.51
2023-08-03T03:35:41.308Z,14.49
2023-08-03T03:38:12.812Z,14.54
2023-08-03T03:40:41.929Z,14.71
2023-08-03T03:43:11.173Z,14.65
2023-08-03T03:45:40.441Z,14.58
2023-08-03T03:48:10.720Z,14.63
2023-08-03T03:50:41.544Z,14.71
2023-08-03T03:53:10.448Z,14.66
2023-08-03T03:55:43.836Z,14.69
2023-08-03T03:58:12.923Z,14.75
2023-08-03T04:00:42.360Z,14.82
2023-08-03T04:03:15.370Z,14.82
2023-08-03T04:05:45.533Z,14.81
2023-08-03T04:08:15.807Z,14.82
2023-08-03T04:10:44.259Z,14.92
2023-08-03T04:13:13.448Z,14.87
2023-08-03T04:15:42.745Z,14.90
2023-08-03T04:18:11.495Z,15.01
2023-08-03T04:20:42.787Z,14.96
2023-08-03T04:23:11.585Z,14.96
2023-08-03T04:25:40.605Z,14.90
2023-08-03T04:28:25.055Z,15.02
2023-08-03T04:30:53.882Z,15.07
2023-08-03T04:33:22.640Z,15.14
2023-08-03T04:36:02.625Z,15.13
2023-08-03T04:38:38.515Z,15.12
2023-08-03T04:41:08.285Z,15.18
2023-08-03T04:43:46.638Z,15.22
2023-08-03T04:46:18.074Z,15.34
2023-08-03T04:48:47.274Z,15.32
2023-08-03T04:51:19.236Z,15.35
2023-08-03T04:53:52.764Z,15.38
2023-08-03T04:56:23.440Z,15.38
2023-08-03T04:58:53.267Z,15.46
2023-08-03T05:01:22.065Z,15.56
2023-08-03T05:03:50.855Z,15.66
2023-08-03T05:06:21.240Z,15.73
2023-08-03T05:08:52.023Z,15.91
2023-08-03T05:11:22.143Z,15.94
2023-08-03T05:13:51.141Z,16.11
2023-08-03T05:16:25.670Z,16.11
2023-08-03T05:18:54.793Z,16.12
2023-08-03T05:21:24.853Z,16.30
2023-08-03T05:23:53.551Z,16.29
2023-08-03T05:26:22.311Z,16.39
2023-08-03T05:28:51.322Z,16.54
2023-08-03T05:31:20.166Z,16.43
2023-08-03T05:33:49.188Z,16.49
2023-08-03T05:36:18.281Z,16.49
2023-08-03T05:38:49.105Z,16.49
2023-08-03T05:41:18.350Z,16.66
2023-08-03T05:43:48.696Z,16.64
2023-08-03T05:46:17.976Z,16.79
2023-08-03T05:48:50.086Z,17.01
2023-08-03T05:51:27.115Z,17.23
2023-08-03T05:53:59.110Z,17.48
2023-08-03T05:56:28.006Z,17.45
2023-08-03T05:58:57.055Z,17.76
2023-08-03T06:01:26.484Z,17.89
2023-08-03T06:03:55.748Z,18.10
2023-08-03T06:06:25.092Z,18.26
2023-08-03T06:08:55.147Z,18.32
2023-08-03T06:11:28.180Z,18.32
2023-08-03T06:13:57.639Z,18.14
2023-08-03T06:16:26.777Z,18.08
2023-08-03T06:18:57.390Z,18.10
2023-08-03T06:21:28.172Z,17.94
2023-08-03T06:23:59.251Z,18.03
2023-08-03T06:26:34.056Z,18.06
2023-08-03T06:29:03.534Z,18.04
2023-08-03T06:31:34.099Z,18.05
2023-08-03T06:34:03.583Z,18.02
2023-08-03T06:36:32.167Z,18.05
2023-08-03T06:39:01.239Z,18.18
2023-08-03T06:41:31.264Z,18.07
2023-08-03T06:44:00.085Z,18.10
2023-08-03T06:46:29.227Z,18.00
2023-08-03T06:48:58.175Z,17.92
2023-08-03T06:51:27.007Z,17.99
2023-08-03T06:53:55.882Z,18.00
2023-08-03T06:56:24.646Z,17.87
2023-08-03T06:58:54.914Z,17.84
2023-08-03T07:01:23.723Z,17.90
2023-08-03T07:03:52.954Z,17.97
2023-08-03T07:06:21.694Z,17.87
2023-08-03T07:08:50.266Z,17.95
2023-08-03T07:11:19.107Z,17.97
2023-08-03T07:13:47.798Z,18.07
2023-08-03T07:16:17.927Z,17.92
2023-08-03T07:18:46.685Z,17.99
2023-08-03T07:21:15.468Z,18.06
2023-08-03T07:23:44.261Z,18.01
2023-08-03T07:26:16.770Z,18.01
2023-08-03T07:28:45.636Z,17.97
2023-08-03T07:31:18.667Z,17.89
2023-08-03T07:33:47.482Z,17.82
2023-08-03T07:36:19.809Z,17.87
2023-08-03T07:38:48.645Z,17.92
2023-08-03T07:41:17.299Z,17.91
2023-08-03T07:43:46.282Z,17.77
2023-08-03T07:46:15.025Z,17.76
2023-08-03T07:48:45.371Z,17.77
2023-08-03T07:51:15.106Z,17.81
2023-08-03T07:53:44.013Z,17.65
2023-08-03T07:56:19.455Z,17.62
2023-08-03T07:58:49.097Z,17.75
2023-08-03T08:01:18.301Z,17.60
2023-08-03T08:03:49.340Z,17.65
2023-08-03T08:06:20.153Z,17.70
2023-08-03T08:08:48.841Z,17.65
2023-08-03T08:11:19.504Z,17.74
2023-08-03T08:13:48.807Z,17.89
2023-08-03T08:16:18.658Z,17.99
2023-08-03T08:18:48.855Z,18.06
2023-08-03T08:21:17.702Z,18.21
2023-08-03T08:23:46.680Z,18.35
2023-08-03T08:26:16.800Z,18.48
2023-08-03T08:29:01.824Z,18.56
2023-08-03T08:34:07.446Z,18.60
2023-08-03T08:36:36.215Z,18.57
2023-08-03T08:39:05.496Z,18.56
2023-08-03T08:41:34.210Z,18.48
2023-08-03T08:44:02.921Z,18.59
2023-08-03T08:46:32.036Z,18.48
2023-08-03T08:49:01.163Z,18.67
2023-08-03T09:01:52.422Z,19.25
2023-08-03T09:04:36.172Z,19.28
2023-08-03T09:07:07.307Z,19.43
2023-08-03T09:09:37.134Z,19.46
2023-08-03T09:12:08.599Z,19.54
2023-08-03T09:14:52.175Z,19.58
2023-08-03T09:17:22.179Z,19.79
2023-08-03T09:25:07.290Z,20.08
2023-08-03T09:32:50.589Z,20.62
2023-08-03T09:35:21.612Z,20.49
2023-08-03T09:37:53.334Z,20.69
2023-08-03T09:40:22.315Z,20.58
2023-08-03T09:42:51.182Z,20.61
2023-08-03T09:48:07.233Z,20.83
2023-08-03T09:50:37.563Z,20.85
2023-08-03T09:53:16.328Z,20.64
2023-08-03T09:55:49.056Z,20.79
2023-08-03T09:58:22.230Z,20.80
2023-08-03T10:00:52.928Z,20.67
2023-08-03T10:03:22.451Z,20.63
2023-08-03T10:05:54.438Z,20.72
2023-08-03T10:08:29.805Z,20.72
2023-08-03T10:11:02.056Z,20.71
2023-08-03T10:13:35.312Z,20.69
2023-08-03T10:16:05.008Z,20.91
2023-08-03T10:21:09.470Z,20.84
2023-08-03T10:23:40.780Z,20.73
2023-08-03T10:26:22.671Z,20.72
2023-08-03T10:28:52.741Z,20.73
2023-08-03T10:31:22.776Z,20.72
2023-08-03T10:34:08.092Z,20.73
2023-08-03T10:36:51.093Z,20.65
2023-08-03T10:39:52.641Z,20.55
2023-08-03T10:42:36.160Z,20.50
2023-08-03T10:45:32.106Z,20.49
2023-08-03T10:48:23.489Z,20.64
2023-08-03T10:51:06.050Z,20.57
2023-08-03T10:53:36.169Z,20.45
2023-08-03T10:56:12.192Z,20.49
2023-08-03T10:58:50.085Z,20.47
2023-08-03T11:01:24.185Z,20.50
2023-08-03T11:03:54.795Z,20.46
2023-08-03T11:06:23.503Z,20.48
2023-08-03T11:08:53.085Z,20.48
2023-08-03T11:11:25.374Z,20.34
2023-08-03T11:13:55.181Z,20.41
2023-08-03T11:16:24.812Z,20.36
2023-08-03T11:18:53.793Z,20.24
2023-08-03T11:21:22.558Z,20.38
2023-08-03T11:23:53.228Z,20.47
2023-08-03T11:26:23.830Z,20.32
2023-08-03T11:28:52.625Z,20.26
2023-08-03T11:31:22.766Z,20.22
2023-08-03T11:33:52.656Z,20.10
2023-08-03T11:36:22.306Z,20.11
2023-08-03T11:38:52.641Z,20.19
2023-08-03T11:43:57.782Z,19.92
2023-08-03T11:46:29.381Z,19.81
2023-08-03T11:48:58.974Z,19.80
2023-08-03T11:51:34.602Z,19.72
2023-08-03T11:54:04.776Z,19.79
2023-08-03T11:56:43.579Z,19.75
2023-08-03T11:59:11.808Z,19.74
2023-08-03T12:01:46.694Z,19.78
2023-08-03T12:04:16.652Z,19.74
2023-08-03T12:06:50.882Z,19.75
2023-08-03T12:09:21.672Z,19.82
2023-08-03T12:11:51.858Z,19.86
2023-08-03T12:14:20.919Z,19.93
2023-08-03T12:16:49.681Z,20.03
2023-08-03T12:19:20.331Z,20.22
2023-08-03T12:21:49.276Z,20.10
2023-08-03T12:24:18.079Z,20.14
2023-08-03T12:26:50.118Z,20.29
2023-08-03T12:29:20.670Z,20.38
2023-08-03T12:31:49.703Z,20.35
2023-08-03T12:34:18.678Z,20.27
2023-08-03T12:36:47.604Z,20.46
2023-08-03T12:39:19.433Z,20.49
2023-08-03T12:41:48.211Z,20.58
2023-08-03T12:44:19.373Z,20.57
2023-08-03T12:46:48.255Z,20.61
2023-08-03T12:49:19.606Z,20.58
2023-08-03T12:51:48.205Z,20.62
2023-08-03T12:54:16.806Z,20.48
2023-08-03T12:56:47.904Z,20.44
2023-08-03T12:59:16.721Z,20.48
2023-08-03T13:01:47.315Z,20.46
2023-08-03T13:04:18.111Z,20.40
2023-08-03T13:06:47.080Z,20.45
2023-08-03T13:09:15.935Z,20.38
2023-08-03T13:11:44.626Z,20.42
2023-08-03T13:14:14.082Z,20.38
2023-08-03T13:16:42.926Z,20.24
2023-08-03T13:19:13.017Z,20.24
2023-08-03T13:21:42.044Z,20.46
2023-08-03T13:24:10.768Z,20.53
2023-08-03T13:26:39.391Z,20.69
2023-08-03T13:29:08.370Z,20.90
2023-08-03T13:31:37.001Z,21.00
2023-08-03T13:34:05.895Z,21.01
2023-08-03T13:36:36.315Z,21.02
2023-08-03T13:39:05.852Z,21.15
2023-08-03T13:41:34.578Z,21.00
2023-08-03T13:44:03.510Z,20.96
2023-08-03T13:46:32.373Z,21.03
2023-08-03T13:49:01.142Z,20.83
2023-08-03T13:51:30.338Z,20.70
2023-08-03T13:54:00.483Z,20.67
2023-08-03T13:56:32.735Z,20.72
2023-08-03T13:59:01.908Z,20.58
2023-08-03T14:01:37.503Z,20.50
2023-08-03T14:04:07.553Z,20.59
2023-08-03T14:07:10.195Z,20.58
2023-08-03T14:09:27.854Z,20.49
2023-08-03T14:11:59.899Z,20.60
2023-08-03T14:17:00.128Z,20.55
2023-08-03T14:19:28.737Z,20.50
2023-08-03T14:21:58.615Z,20.55
2023-08-03T14:24:29.944Z,20.62
2023-08-03T14:26:58.507Z,20.55
2023-08-03T14:29:26.990Z,20.54
2023-08-03T14:31:55.563Z,20.48
2023-08-03T14:34:24.606Z,20.48
2023-08-03T14:36:55.789Z,20.48
2023-08-03T14:39:24.737Z,20.37
2023-08-03T14:41:57.295Z,20.29
2023-08-03T14:44:31.417Z,19.83
2023-08-03T14:47:01.686Z,18.82
2023-08-03T14:49:30.680Z,18.36
2023-08-03T14:54:30.765Z,17.52
2023-08-03T14:57:00.834Z,17.32
2023-08-03T14:59:29.821Z,17.38
2023-08-03T15:02:02.927Z,17.39
2023-08-03T15:04:31.883Z,17.22
2023-08-03T15:07:06.488Z,17.29
2023-08-03T15:09:35.981Z,17.24
2023-08-03T15:12:07.040Z,17.24
2023-08-03T15:14:36.537Z,17.18
2023-08-03T15:17:24.390Z,17.17
2023-08-03T15:19:59.474Z,16.92
2023-08-03T15:22:29.475Z,16.83
2023-08-03T15:24:59.426Z,16.89
2023-08-03T15:27:32.084Z,16.81
2023-08-03T15:30:02.326Z,16.74
2023-08-03T15:33:18.515Z,16.76
2023-08-03T15:35:40.468Z,16.78
2023-08-03T15:38:11.099Z,16.63
2023-08-03T15:40:55.904Z,16.63
2023-08-03T15:43:37.385Z,16.81
2023-08-03T15:46:15.912Z,16.95
2023-08-03T15:51:19.382Z,16.99
2023-08-03T15:53:59.204Z,17.18
2023-08-03T15:56:31.256Z,17.20
2023-08-03T15:59:01.595Z,17.20
2023-08-03T16:01:30.566Z,17.32
2023-08-03T16:03:59.324Z,17.33
2023-08-03T16:06:28.484Z,17.37
2023-08-03T16:08:57.044Z,17.46
2023-08-03T16:11:40.013Z,17.45
2023-08-03T16:14:15.888Z,17.46
2023-08-03T16:16:44.926Z,17.26
2023-08-03T16:19:15.041Z,17.16
2023-08-03T16:21:43.938Z,17.04
2023-08-03T16:24:12.656Z,17.02
2023-08-03T16:26:41.203Z,17.06
2023-08-03T16:29:10.810Z,16.92
2023-08-03T16:31:53.391Z,16.90
2023-08-03T16:34:27.363Z,16.87
2023-08-03T16:36:56.681Z,16.82
2023-08-03T16:39:26.465Z,16.84
2023-08-03T16:41:55.166Z,16.95
2023-08-03T16:44:23.700Z,17.34
2023-08-03T16:46:55.341Z,17.63
2023-08-03T16:49:25.608Z,17.56
2023-08-03T16:51:55.111Z,17.63
2023-08-03T16:54:24.353Z,17.62
2023-08-03T16:56:53.182Z,17.56
2023-08-03T16:59:22.027Z,17.53
2023-08-03T17:01:50.816Z,17.55
2023-08-03T17:04:20.989Z,17.59
2023-08-03T17:06:50.248Z,17.55
2023-08-03T17:09:19.104Z,17.59
2023-08-03T17:11:47.869Z,17.75
2023-08-03T17:14:18.459Z,17.74
2023-08-03T17:16:47.371Z,17.83
2023-08-03T17:19:16.220Z,17.75
2023-08-03T17:21:46.656Z,17.78
2023-08-03T17:24:16.261Z,17.69
2023-08-03T17:26:45.719Z,17.74
2023-08-03T17:29:14.784Z,17.67
2023-08-03T17:31:44.091Z,17.61
2023-08-03T17:34:12.693Z,17.61
2023-08-03T17:36:42.401Z,17.59
2023-08-03T17:39:12.943Z,17.45
2023-08-03T17:41:41.543Z,17.42
2023-08-03T17:44:10.521Z,17.25
2023-08-03T17:46:40.143Z,17.26
2023-08-03T17:49:09.443Z,17.14
2023-08-03T17:51:38.250Z,17.08
2023-08-03T17:54:09.013Z,17.08
2023-08-03T17:56:39.286Z,17.07
2023-08-03T17:59:08.128Z,17.03
2023-08-03T18:01:36.900Z,16.99
2023-08-03T18:04:08.989Z,16.95
2023-08-03T18:06:41.767Z,17.13
2023-08-03T18:09:11.220Z,17.13
2023-08-03T18:11:41.347Z,17.07
2023-08-03T18:14:10.034Z,17.03
2023-08-03T18:16:39.300Z,17.00
2023-08-03T18:19:08.425Z,16.97
2023-08-03T18:21:37.094Z,17.04
2023-08-03T18:24:06.319Z,17.06
2023-08-03T18:26:35.110Z,17.00
2023-08-03T18:29:05.277Z,17.06
2023-08-03T18:31:34.314Z,16.81
2023-08-03T18:34:03.384Z,16.81
2023-08-03T18:36:32.987Z,16.75
2023-08-03T18:39:01.842Z,16.65
2023-08-03T18:41:33.768Z,16.64
2023-08-03T18:44:05.748Z,16.59
2023-08-03T18:46:34.227Z,16.54
2023-08-03T18:49:02.816Z,16.56
2023-08-03T18:51:31.415Z,16.35
2023-08-03T18:54:00.472Z,16.30
2023-08-03T18:56:29.842Z,16.22
2023-08-03T18:59:00.115Z,16.16
2023-08-03T19:01:33.018Z,16.10
2023-08-03T19:04:02.921Z,16.01
2023-08-03T19:06:31.697Z,15.97
2023-08-03T19:09:00.710Z,15.86
2023-08-03T19:11:29.497Z,15.86
2023-08-03T19:13:59.355Z,15.85
2023-08-03T19:16:29.616Z,15.88
2023-08-03T19:18:58.536Z,15.82
2023-08-03T19:21:27.612Z,15.79
2023-08-03T19:23:56.310Z,15.83
2023-08-03T19:26:26.433Z,15.83
2023-08-03T19:28:55.929Z,15.88
2023-08-03T19:31:25.321Z,15.84
2023-08-03T19:33:56.012Z,15.92
2023-08-03T19:36:24.996Z,15.94
2023-08-03T19:38:54.719Z,15.92
2023-08-03T19:41:23.385Z,15.93
2023-08-03T19:43:51.923Z,16.01
2023-08-03T19:46:20.660Z,16.00
2023-08-03T19:48:49.328Z,15.85
2023-08-03T19:55:03.179Z,15.92
2023-08-03T19:56:39.796Z,15.90
2023-08-03T20:06:46.138Z,16.16
2023-08-03T20:09:16.147Z,16.11
2023-08-03T20:11:44.905Z,15.95
2023-08-03T20:14:13.636Z,16.03
2023-08-03T20:16:42.632Z,16.04
2023-08-03T20:19:11.404Z,15.92
2023-08-03T20:21:41.657Z,15.90
2023-08-03T20:24:11.925Z,15.76
2023-08-03T20:26:44.322Z,15.83
2023-08-03T20:29:20.883Z,15.84
2023-08-03T20:31:50.158Z,15.84
2023-08-03T20:34:18.820Z,15.66
2023-08-03T20:36:47.999Z,15.72
2023-08-03T20:42:42.437Z,15.72
2023-08-03T20:49:54.710Z,15.55
2023-08-03T20:52:23.262Z,15.49
2023-08-03T20:54:53.602Z,15.43
2023-08-03T20:57:22.169Z,15.52
2023-08-03T20:59:51.022Z,15.48
2023-08-03T21:02:19.534Z,15.46
2023-08-03T21:04:50.051Z,15.40
2023-08-03T21:07:18.899Z,15.34
2023-08-03T21:12:22.715Z,15.39
2023-08-03T21:14:53.695Z,15.39
2023-08-03T21:17:22.391Z,15.38
2023-08-03T21:19:51.031Z,15.29
2023-08-03T21:22:20.587Z,15.32
2023-08-03T21:24:50.102Z,15.34
2023-08-03T21:27:20.226Z,15.32
2023-08-03T21:29:49.946Z,15.23
2023-08-03T21:32:18.692Z,15.28
2023-08-03T21:34:47.797Z,15.25
2023-08-03T21:37:17.202Z,15.27
2023-08-03T21:39:45.884Z,15.24
2023-08-03T21:42:14.774Z,15.25
2023-08-03T21:44:44.873Z,15.27
2023-08-03T21:47:14.273Z,15.19
2023-08-03T21:49:42.908Z,15.24
2023-08-03T21:52:11.999Z,15.23
2023-08-03T21:54:40.794Z,15.29
2023-08-03T21:57:09.594Z,15.28
2023-08-03T21:59:38.377Z,15.30
2023-08-03T22:02:08.975Z,15.23
2023-08-03T22:04:37.602Z,15.38
2023-08-03T22:07:06.979Z,15.43
2023-08-03T22:09:35.577Z,15.47
2023-08-03T22:12:04.286Z,15.37
2023-08-03T22:14:32.846Z,15.40
2023-08-03T22:17:01.514Z,15.35
2023-08-03T22:19:31.492Z,15.48
2023-08-03T22:22:00.155Z,15.49
2023-08-03T22:24:28.798Z,15.43
2023-08-03T22:26:57.356Z,15.48
2023-08-03T22:29:26.019Z,15.48
2023-08-03T22:31:54.701Z,15.46
2023-08-03T22:34:23.490Z,15.46
2023-08-03T22:36:53.538Z,15.38
2023-08-03T22:39:22.272Z,15.40
2023-08-03T22:41:50.791Z,15.45
2023-08-03T22:44:19.404Z,15.39
2023-08-03T22:46:48.034Z,15.36
2023-08-03T22:49:16.667Z,15.23
2023-08-03T22:51:45.371Z,15.28
2023-08-03T22:54:15.568Z,15.34
2023-08-03T22:56:44.190Z,15.28
2023-08-03T22:59:12.822Z,15.19
2023-08-03T23:01:41.416Z,15.26
2023-08-03T23:04:10.978Z,15.38
2023-08-03T23:06:39.578Z,15.38
2023-08-03T23:09:08.175Z,15.31
2023-08-03T23:11:38.169Z,15.11
2023-08-03T23:14:06.644Z,15.24
2023-08-03T23:16:35.271Z,15.24
2023-08-03T23:19:03.825Z,15.05
2023-08-03T23:21:32.724Z,15.02
2023-08-03T23:24:01.271Z,15.01
2023-08-03T23:26:29.822Z,14.94
2023-08-03T23:28:59.815Z,14.98
2023-08-03T23:31:28.368Z,14.99
2023-08-03T23:33:56.931Z,14.82
2023-08-03T23:36:25.564Z,14.73
2023-08-03T23:38:54.084Z,14.91
2023-08-03T23:41:23.055Z,14.98
2023-08-03T23:43:51.595Z,14.94
2023-08-03T23:46:21.916Z,15.00
2023-08-03T23:48:50.517Z,14.80
2023-08-03T23:51:19.041Z,14.72
2023-08-03T23:53:47.731Z,14.71
2023-08-03T23:56:16.210Z,14.88
2023-08-03T23:58:44.790Z,15.10
